首页
METAR-TAF:

METAR-TAF

机场 :

爱达荷福尔斯, 爱达荷州, 美国

纬度: 43-31-15N, 经度: 112-03-58W, 海拔: 1445米

当前天气观测

该预报发布于44分钟前的12:53 UTC
风速4节,风向
温度 7°C
湿度 93%
气压 1020 hPa
能見度: 16.1公里
天空无云

METAR: KIDA 161253Z 35004KT 10SM R21/3000V5000FT CLR 07/06 A3013 RMK AO2 SLP169 T00720056

时间: 07:37 (13:37 UTC)

预报

该预报发布于2小时和17分钟前的11:20 UTC
预报有效从16日的 12点(UTC)到 17日的 12点(UTC)
风速5节,风向多变
能見度: 10公里
天空无云
从 16日的 1700点(UTC)
风速10节,风向南转西南,有时为18节阵风
能見度: 10公里
天空无云
从 17日的 0300点(UTC)
风速7节,风向南转西南
能見度: 10公里
天空无云

TAF: KIDA 161120Z 1612/1712 VRB05KT P6SM SKC FM161700 21010G18KT P6SM SKC FM170300 20007KT P6SM SKC

超过4000个机场的气象观测和天气预报(METAR&TAF报告)。

可查询的气象台以黄色和红色小点在地图上表示。

将鼠标移到小点上方,可查看气象台名称。

然后点击查看天气观测和预报。

如需切换地图:点击带黑十字的绿色按钮放大地图;点击带横线的绿色按钮缩小地图;或者点击绿色箭头查看邻近地区的地图。


METAR-TAF: